Reklama

Seznam meteostanic a jejich METAR

Vyhledat místa podle abecedy:
A B C D E F G H I J K L M N O P Q R S T U V W X Y Z

Filtrovat:

ID stanice:
a/nebo
Název místa (fulltext):
 
Místo (ID)Naposledy načteno 
Doksany - Litoměřice (Doksany) 19.11.2018 01:00 UTC Zobrazit data
Místo: Doksany - Litoměřice
Teplota: 1 °C (pocitová: 13.8 °C)
Vítr: 0 m/s z(e) 0°
Počasí: zataženo
Dohlednost: 12 km
Zákl. oblačnosti: 5/8 420 m;8/8 1500 m
Vlhkost: 87%
Dukovany (Dukovany) 19.11.2018 01:00 UTC Zobrazit data
Místo: Dukovany
Teplota: 0 °C (pocitová: -8.4 °C)
Vítr: 4 m/s z(e) 10°
Počasí: sněží
Dohlednost: 4200 m
Zákl. oblačnosti: 2/8 630 m;8/8 1800 m
Vlhkost: 87%
Dakar (GOOY) 19.11.2018 01:00 UTC Zobrazit METAR
GOOY 190100Z 36006KT 8000 NSC 21/19 Q1014
Damascus (OSDI) 19.11.2018 01:00 UTC Zobrazit METAR
OSDI 190100Z 04008KT CAVOK 11/07 Q1020
Debrecen (LHDC) 18.11.2018 22:45 UTC Zobrazit METAR
LHDC 182245Z 03009KT CAVOK 01/M02 Q1017 NOSIG
Delhi (VIDP) 19.11.2018 01:00 UTC Zobrazit METAR
VIDP 190100Z 12007KT 2000 FU FEW040 SCT100 19/14 Q1015 BECMG 1500 FU
Dhaka (VGZR) Zatím nenačteno  
Diego Garcia (FJDG) 19.11.2018 00:55 UTC Zobrazit METAR
FJDG 190055Z 13005KT 9999 FEW019 FEW045 SCT100 27/26 A2985 RMK SLP105 T02650256
Djibouti (HDAM) 18.11.2018 16:00 UTC Zobrazit METAR
HDAM 181600Z 11008KT CAVOK 28/23 Q1014
Dnipropetrovs'k (UKDD) 12.08.2013 14:00 UTC Zobrazit METAR
UKDD 121400Z CAVOK 33/13 Q1012 08090070 NOSIG
Dodoma (HTDO) 16.11.2018 10:00 UTC Zobrazit METAR
HTDO 161000Z 08018KT 9999 FEW035 30/13 Q1017 NOSIG
Doha (OTBD) 19.11.2018 01:00 UTC Zobrazit METAR
OTBD 190100Z 31011KT CAVOK 22/16 Q1016 NOSIG
Dortmund (EDLW) 19.11.2018 00:50 UTC Zobrazit METAR
EDLW 190050Z AUTO 06003KT 9000 BKN014/// OVC021/// 02/01 Q1024
Dresden (EDDC) 18.11.2018 20:50 UTC Zobrazit METAR
EDDC 182050Z 30003KT 260V320 1800 -SN BR FEW001 BKN002 M01/M02 Q1023 TEMPO BKN001
Dublin (EIDW) 19.11.2018 01:00 UTC Zobrazit METAR
EIDW 190100Z 10015KT 9999 FEW015 08/04 Q1026 NOSIG
Dubrovnik (LDDU) 19.11.2018 01:00 UTC Zobrazit METAR
LDDU 190100Z 04003KT 010V070 CAVOK 08/01 Q1009
Dushanbe (UTDD) Zatím nenačteno  
Dusseldorf (EDDL) 19.11.2018 00:50 UTC Zobrazit METAR
EDDL 190050Z 05012KT 9999 FEW016 03/00 Q1024 NOSIG
Dzaoudzi (FMCZ) 19.11.2018 01:00 UTC Zobrazit METAR
FMCZ 190100Z AUTO 01005KT 330V030 9999 FEW021 26/23 Q1013 NOSIG
Reklama

Počasí na Váš email

Emaily jsou bez reklamy a bez spamu



Odhlásit newsletter

Reklama


Lunární kalendář

  • 23.11.
  • 30.11.
  • 07.12.
  • 15.12.



Reklama


Reklama
Povinné ručení
Reklama



Reklama